Home > Products > Valid Products > TAF

000
FTUS41 KRLX 270500 RRA
TAFHTS
TAF
KHTS 270544Z 2706/2806 34007KT P6SM BKN035
     FM270700 34007KT P6SM SCT100
     FM270900 33006KT P6SM SKC
     FM271800 32005KT P6SM SCT035
     FM272300 00000KT P6SM SCT250=



000
FTUS41 KRLX 270500 RRA
TAFBKW
TAF
KBKW 270544Z 2706/2806 31009G14KT 3SM -SN OVC020
      TEMPO 2706/2710 1 1/2SM -SN BKN010
     FM271000 31008KT 4SM -SN BKN020
     FM271200 30007KT 6SM -SN BKN025
     FM271500 31008KT P6SM BKN025
     FM272300 32005KT P6SM SCT030
     FM280100 VRB03KT P6SM BKN250=



000
FTUS41 KRLX 270500 RRA
TAFCRW
TAF
KCRW 270544Z 2706/2806 32008KT 4SM -SN OVC025
      TEMPO 2706/2707 2SM -SN BKN015
     FM270800 32007KT 6SM -SN BKN035
     FM270900 32007KT P6SM BKN040
     FM271100 32006KT P6SM SKC
     FM271800 31006KT P6SM SCT035
     FM272300 00000KT P6SM SCT250=



000
FTUS41 KRLX 270500 RRA
TAFCKB
TAF
KCKB 270544Z 2706/2806 35008G13KT 4SM BR OVC025
      TEMPO 2706/2708 2SM -SN BKN015
     FM270800 35007KT 6SM -SN BKN035
     FM270900 35007KT P6SM BKN045
     FM271100 34006KT P6SM SKC
     FM271800 30006KT P6SM SCT035
     FM280000 00000KT P6SM SCT040
     FM280200 00000KT P6SM BKN250=



000
FTUS41 KRLX 270500 AAC
TAFBKW
TAF AMD
KBKW 270503Z 2705/2724 33005KT P6SM OVC035
     FM270530 32006KT 4SM -SN BKN025
      TEMPO 2706/2709 1 1/2SM -SN BKN010
     FM271100 32006KT 3SM -SHSN BR BKN020
     FM271200 32007KT P6SM BKN025
     FM272000 33007KT P6SM SCT025=



000
FTUS41 KRLX 270500 AAC
TAFEKN
TAF AMD
KEKN 270502Z 2705/2724 29006KT P6SM BKN035
     FM270530 30005KT 4SM -SN BKN030
      TEMPO 2706/2709 2SM -SN BKN015
     FM271000 31005KT 3SM -SN BKN020
     FM271100 31005KT 6SM -SN BKN025
     FM272200 30006KT P6SM SCT030=



000
FTUS41 KRLX 270500 AAC
TAFEKN
TAF AMD
KEKN 270502Z 2705/2724 29006KT P6SM BKN035
     FM270530 30005KT 4SM -SN BKN030
      TEMPO 2706/2709 2SM -SN BKN015
     FM271000 31005KT 3SM -SN BKN020
     FM271100 31005KT 6SM -SN BKN025
     FM272200 30006KT P6SM SCT030=



000
FTUS41 KRLX 270500 AAB
TAFCRW
TAF AMD
KCRW 270500Z 2705/2724 33008KT 5SM -SN SCT015 BKN030
      TEMPO 2705/2708 2SM -SN BKN015
     FM270800 33005KT P6SM BKN035
     FM271100 33005KT P6SM SKC
     FM271600 32005KT P6SM SCT030=



000
FTUS41 KRLX 270500 AAB
TAFCRW
TAF AMD
KCRW 270500Z 2705/2724 33008KT 5SM -SN SCT015 BKN030
      TEMPO 2705/2708 2SM -SN BKN015
     FM270800 33005KT P6SM BKN035
     FM271100 33005KT P6SM SKC
     FM271600 32005KT P6SM SCT030=



000
FTUS41 KRLX 270400 AAB
TAFCKB
TAF AMD
KCKB 270458Z 2705/2724 34008KT 5SM -SHSN BR SCT020 OVC035
      TEMPO 2705/2708 2SM -SN BKN020
     FM270800 33005KT P6SM BKN035
     FM271800 30007KT P6SM BKN035=



000
FTUS41 KRLX 270400 AAB
TAFCKB
TAF AMD
KCKB 270458Z 2705/2724 34008KT 5SM -SHSN BR SCT020 OVC035
      TEMPO 2705/2708 2SM -SN BKN020
     FM270800 33005KT P6SM BKN035
     FM271800 30007KT P6SM BKN035=



000
FTUS41 KRLX 270400 AAB
TAFPKB
TAF AMD
KPKB 270431Z 2705/2724 35006KT 5SM -SHSN BKN025
      TEMPO 2705/2706 2SM -SN BKN015
     FM270600 35006KT P6SM BKN035
     FM270700 35006KT P6SM BKN100
     FM270900 35005KT P6SM SKC
     FM271700 33006KT P6SM SCT035=



000
FTUS41 KRLX 270400 AAB
TAFPKB
TAF AMD
KPKB 270431Z 2705/2724 35006KT 5SM -SHSN BKN025
      TEMPO 2705/2706 2SM -SN BKN015
     FM270600 35006KT P6SM BKN035
     FM270700 35006KT P6SM BKN100
     FM270900 35005KT P6SM SKC
     FM271700 33006KT P6SM SCT035=



000
FTUS41 KRLX 270400 AAB
TAFBKW
TAF AMD
KBKW 270409Z 2704/2724 33005KT P6SM OVC035
     FM270500 32006KT 3SM -SHSN BR BKN010
     FM270800 32006KT 1 1/2SM -SHSN BR BKN010
     FM271000 32006KT 3SM -SHSN BR BKN010
     FM271200 32007KT P6SM BKN010
     FM272000 33007KT P6SM SCT020=



000
FTUS41 KRLX 270400 AAB
TAFEKN
TAF AMD
KEKN 270408Z 2704/2724 29006KT P6SM BKN045 BKN070 OVC080
     FM270500 30005KT 2SM -SHSN BKN015
     FM271000 31005KT 3SM -SN BKN020
     FM271100 31005KT 6SM -SN BKN025
     FM272200 30006KT P6SM SCT030=



000
FTUS41 KRLX 270300 AAB
TAFHTS
TAF AMD
KHTS 270344Z 2704/2724 33007G15KT 5SM -SHSN BR OVC030
      TEMPO 2704/2705 2SM -SHSN BKN015
     FM270800 34005KT P6SM SCT030=



000
FTUS41 KRLX 270300 AAA
TAFBKW
TAF AMD
KBKW 270306Z 2703/2724 33005KT P6SM BKN026 OVC035
     FM270500 32006KT 3SM -SHSN BR BKN010
     FM270800 32006KT 1 1/2SM -SHSN BR BKN010
     FM271000 32006KT 3SM -SHSN BR BKN010
     FM271200 32007KT P6SM BKN010
     FM272000 33007KT P6SM SCT020=



000
FTUS41 KRLX 270300 AAA
TAFHTS
TAF AMD
KHTS 270306Z 2703/2724 33007G15KT 5SM -SHSN BR OVC030
     FM270800 34005KT P6SM SCT030=



000
FTUS41 KRLX 270300 AAA
TAFPKB
TAF AMD
KPKB 270306Z 2703/2724 35006KT 5SM -SHSN BR BKN025
     FM271100 33004KT P6SM SCT030=



000
FTUS41 KRLX 270300 AAA
TAFCKB
TAF AMD
KCKB 270306Z 2703/2724 35006KT 5SM -SHSN BR OVC030
     FM270700 33005KT 5SM -SHSN BR BKN015
     FM271100 32005KT 6SM -SHSN BR BKN025
     FM271800 30007KT P6SM BKN035=



000
FTUS41 KRLX 270300 AAA
TAFCRW
TAF AMD
KCRW 270306Z 2703/2724 31011KT P6SM OVC050
     FM270500 33005KT 5SM -SHSN BR BKN030
     FM271100 33005KT P6SM BKN030
     FM271600 32005KT P6SM SCT030=



000
FTUS41 KRLX 270300 AAA
TAFEKN
TAF AMD
KEKN 270306Z 2703/2724 30006KT P6SM BKN045 BKN070 OVC080
     FM270400 30005KT 1 1/2SM -SHSN BR BKN015
     FM271000 31005KT 3SM BR BKN020
     FM271100 31005KT 6SM BR BKN025
     FM272200 30006KT P6SM SCT030=



000
FTUS41 KRLX 262300
TAFCRW
TAF
KCRW 262338Z 2700/2724 32010KT P6SM SCT045 SCT110 SCT220
     FM270400 33005KT 5SM -SHSN BR BKN030
     FM271100 33005KT P6SM BKN030
     FM271600 32005KT P6SM SCT030=



000
FTUS41 KRLX 262300
TAFPKB
TAF
KPKB 262338Z 2700/2724 32007KT P6SM SCT080
     FM270300 34006KT 5SM -SHSN BR BKN025
     FM271100 33004KT P6SM SCT030=



000
FTUS41 KRLX 262300
TAFCKB
TAF
KCKB 262338Z 2700/2724 31009KT P6SM SKC
     FM270700 33005KT 5SM -SHSN BR BKN015
     FM271100 32005KT 6SM -SHSN BR BKN025
     FM271800 30007KT P6SM BKN035=



000
FTUS41 KRLX 262300
TAFEKN
TAF
KEKN 262338Z 2700/2724 26003KT P6SM OVC035
     FM270400 30005KT 1 1/2SM -SHSN BR BKN015
     FM271000 31005KT 3SM BR BKN020
     FM271100 31005KT 6SM BR BKN025
     FM272200 30006KT P6SM SCT030=



000
FTUS41 KRLX 262300
TAFHTS
TAF
KHTS 262338Z 2700/2724 32009KT P6SM OVC090
     FM270600 34006KT 5SM -SHSN BR BKN030
     FM270800 34005KT P6SM SCT030=



000
FTUS41 KRLX 262300
TAFBKW
TAF
KBKW 262338Z 2700/2724 31005KT P6SM SCT023 OVC030
     FM270300 32005KT 4SM -SHSN BR BKN015
     FM270500 32006KT 3SM -SHSN BR BKN010
     FM270800 32006KT 1 1/2SM -SHSN BR BKN010
     FM271000 32006KT 3SM -SHSN BR BKN010
     FM271200 32007KT P6SM BKN010
     FM272000 33007KT P6SM SCT020=



000
FTUS41 KRLX 261900 AAA
TAFBKW
TAF AMD
KBKW 261931Z 2620/2718 31008KT P6SM BKN010 OVC020
     FM262100 32008KT P6SM BKN020
     FM262300 32008KT P6SM SCT025
     FM270300 32005KT 3SM -SHSN BR BKN025
     FM271300 32007KT 6SM -SHSN BKN025
     FM271500 30006KT P6SM BKN028=



000
FTUS41 KRLX 261700 RRA
TAFPKB
TAF
KPKB 261752Z 2618/2718 32009KT P6SM BKN080
     FM262200 33006KT 6SM -SHSN BR BKN030
     FM270600 34005KT 6SM -SHSN BKN025
     FM271000 33005KT P6SM BKN030
     FM271400 33005KT P6SM SCT030=



000
FTUS41 KRLX 261700 RRA
TAFCRW
TAF
KCRW 261752Z 2618/2718 35007KT P6SM BKN030
     FM261900 34006KT P6SM SCT030 SCT100
     FM262300 31005KT P6SM BKN035
     FM270300 32005KT 3SM -SHSN BR BKN025
     FM270400 33005KT P6SM BKN025
     FM271700 33006KT P6SM SCT030=



000
FTUS41 KRLX 261700 RRA
TAFEKN
TAF
KEKN 261752Z 2618/2718 32005KT P6SM OVC025
     FM262100 32007KT P6SM BKN030
     FM270300 31005KT 2SM -SHSN BR BKN025
     FM271000 31005KT 5SM -SHSN BKN025
     FM271600 30007KT 6SM -SHSN BKN030=



000
FTUS41 KRLX 261700 RRA
TAFEKN
TAF
KEKN 261752Z 2618/2718 32005KT P6SM OVC025
     FM262100 32007KT P6SM BKN030
     FM270300 31005KT 2SM -SHSN BR BKN025
     FM271000 31005KT 5SM -SHSN BKN025
     FM271600 30007KT 6SM -SHSN BKN030=



000
FTUS41 KRLX 261700 RRA
TAFBKW
TAF
KBKW 261752Z 2618/2718 31007KT P6SM BKN025
     FM262300 32005KT P6SM BKN030
     FM270300 32005KT 3SM -SHSN BR BKN025
     FM271300 32007KT 6SM -SHSN BKN025
     FM271500 30006KT P6SM BKN028=



000
FTUS41 KRLX 261700 RRA
TAFHTS
TAF
KHTS 261752Z 2618/2718 32008KT P6SM SCT035
     FM262300 32006KT P6SM BKN030
     FM270300 33006KT 6SM -SHSN BKN025
     FM271100 34005KT P6SM BKN035
     FM271500 31006KT P6SM SCT030=



000
FTUS41 KRLX 261700 RRA
TAFCKB
TAF
KCKB 261752Z 2618/2718 02005KT P6SM BKN030
     FM262000 31006KT P6SM SCT030
     FM270200 32005KT 4SM -SHSN OVC025
     FM271400 30005KT 6SM -SHSN BKN030=



000
FTUS41 KRLX 261700 RRA
TAFHTS
TAF
KHTS 261752Z 2618/2718 32008KT P6SM SCT035
     FM262300 32006KT P6SM BKN030
     FM270300 33006KT 6SM -SHSN BKN025
     FM271100 34005KT P6SM BKN035
     FM271500 31006KT P6SM SCT030=



000
FTUS41 KRLX 261400 AAA
TAFPKB
TAF AMD
KPKB 261436Z 2615/2712 01005KT P6SM OVC070
     FM262000 33006KT 6SM -SHSN BKN030
     FM262200 33006KT 4SM -SHSN BR BKN015
     FM270600 34005KT 6SM -SHSN BKN020
     FM271100 33005KT P6SM BKN025=



000
FTUS41 KRLX 261400 AAA
TAFBKW
TAF AMD
KBKW 261436Z 2615/2712 VRB03KT 6SM -SN BKN015 OVC025
     FM261700 31007KT P6SM BKN025
     FM262300 32005KT 6SM -SHSN BR BKN025
     FM270200 32005KT 3SM -SHSN BR BKN015
     FM271000 32007KT 6SM -SHSN BKN025=



000
FTUS41 KRLX 261400 AAA
TAFEKN
TAF AMD
KEKN 261436Z 2615/2712 VRB03KT 6SM -SN BKN035 OVC080
     FM261700 32005KT P6SM BKN030
     FM262300 32007KT 5SM -SHSN OVC025
     FM270400 31005KT 2SM -SHSN BR BKN015
     FM271000 31005KT 5SM -SHSN BKN025=



000
FTUS41 KRLX 261400 AAA
TAFCRW
TAF AMD
KCRW 261436Z 2615/2712 VRB03KT P6SM OVC025
     FM261800 35007KT P6SM BKN030
     FM262100 31005KT 6SM -SHSN BR BKN025
     FM270000 32005KT 3SM -SHSN BR OVC015
     FM270400 33005KT P6SM BKN025=



000
FTUS41 KRLX 261400 AAA
TAFHTS
TAF AMD
KHTS 261436Z 2615/2712 01004KT P6SM BKN025
     FM261700 35008KT P6SM BKN030 BKN080
     FM261900 32006KT P6SM BKN035
     FM262100 32006KT 6SM -SHSN BR BKN025
     FM270000 33006KT 3SM -SHSN BR BKN015
     FM270300 33006KT P6SM BKN025
     FM271100 34005KT P6SM BKN035=



000
FTUS41 KRLX 261400 AAA
TAFCKB
TAF AMD
KCKB 261436Z 2615/2712 02005KT P6SM OVC035
     FM262100 32007KT 5SM -SHSN BR OVC025
     FM262300 32006KT 3SM -SHSN BR OVC020
     FM270900 32005KT 5SM -SHSN BKN025=



000
FTUS41 KRLX 261100 RRA
TAFBKW
TAF
KBKW 261144Z 2612/2712 VRB03KT 4SM -SN BR OVC025
     FM261500 VRB03KT 6SM -SN BR OVC035
     FM261600 VRB03KT P6SM OVC035
     FM270000 32005KT 6SM -SHSN BR BKN025
     FM270300 32005KT 3SM -SHSN BR BKN015
     FM270800 32007KT P6SM BKN015
     FM271000 32007KT P6SM BKN025=



000
FTUS41 KRLX 261100 RRA
TAFEKN
TAF
KEKN 261144Z 2612/2712 VRB03KT 4SM -SN BR OVC035
     FM261500 00000KT 6SM -SN BR OVC035
     FM261700 VRB03KT P6SM OVC035
     FM262300 30005KT 6SM -SHSN BR OVC025
     FM270600 31005KT 3SM -SHSN BR BKN015
     FM270800 31005KT P6SM BKN015
     FM271000 31005KT P6SM BKN025=



000
FTUS41 KRLX 261100 RRA
TAFPKB
TAF
KPKB 261144Z 2612/2712 01005KT P6SM OVC070
     FM262000 33006KT P6SM BKN035
     FM262100 33006KT 6SM -SHSN BR BKN025
     FM262200 33006KT 4SM -SHSN BR BKN015
     FM270500 34005KT P6SM BKN015
     FM270900 33005KT P6SM BKN025=



000
FTUS41 KRLX 261100 RRA
TAFCKB
TAF
KCKB 261144Z 2612/2712 04004KT P6SM OVC070
     FM261300 VRB03KT P6SM OVC035
     FM262100 31005KT 6SM -SHSN BR OVC025
     FM262300 31006KT 3SM -SHSN BR OVC015
     FM270500 32006KT P6SM OVC015
     FM270900 32005KT P6SM BKN025=



000
FTUS41 KRLX 261100 RRA
TAFBKW
TAF
KBKW 261144Z 2612/2712 VRB03KT 4SM -SN BR OVC025
     FM261500 VRB03KT 6SM -SN BR OVC035
     FM261600 VRB03KT P6SM OVC035
     FM270000 32005KT 6SM -SHSN BR BKN025
     FM270300 32005KT 3SM -SHSN BR BKN015
     FM270800 32007KT P6SM BKN015
     FM271000 32007KT P6SM BKN025=



000
FTUS41 KRLX 261100 RRA
TAFEKN
TAF
KEKN 261144Z 2612/2712 VRB03KT 4SM -SN BR OVC035
     FM261500 00000KT 6SM -SN BR OVC035
     FM261700 VRB03KT P6SM OVC035
     FM262300 30005KT 6SM -SHSN BR OVC025
     FM270600 31005KT 3SM -SHSN BR BKN015
     FM270800 31005KT P6SM BKN015
     FM271000 31005KT P6SM BKN025=



000
FTUS41 KRLX 261100 RRA
TAFHTS
TAF
KHTS 261144Z 2612/2712 01004KT P6SM OVC025
     FM262000 32006KT P6SM BKN035
     FM262100 32006KT 6SM -SHSN BR BKN025
     FM270000 33006KT 3SM -SHSN BR BKN015
     FM270300 33006KT P6SM BKN025
     FM271100 34005KT P6SM BKN035=



000
FTUS41 KRLX 261100 RRA
TAFPKB
TAF
KPKB 261144Z 2612/2712 01005KT P6SM OVC070
     FM262000 33006KT P6SM BKN035
     FM262100 33006KT 6SM -SHSN BR BKN025
     FM262200 33006KT 4SM -SHSN BR BKN015
     FM270500 34005KT P6SM BKN015
     FM270900 33005KT P6SM BKN025=



000
FTUS41 KRLX 261100 RRA
TAFHTS
TAF
KHTS 261144Z 2612/2712 01004KT P6SM OVC025
     FM262000 32006KT P6SM BKN035
     FM262100 32006KT 6SM -SHSN BR BKN025
     FM270000 33006KT 3SM -SHSN BR BKN015
     FM270300 33006KT P6SM BKN025
     FM271100 34005KT P6SM BKN035=



000
FTUS41 KRLX 261100 RRA
TAFCRW
TAF
KCRW 261144Z 2612/2712 VRB03KT 6SM -SN BR SCT004 OVC025
     FM261400 VRB03KT P6SM OVC035
     FM262100 31005KT 6SM -SHSN BR BKN025
     FM270000 32005KT 3SM -SHSN BR OVC015
     FM270400 33005KT P6SM BKN025=



000
FTUS41 KRLX 261100 RRA
TAFCKB
TAF
KCKB 261144Z 2612/2712 04004KT P6SM OVC070
     FM261300 VRB03KT P6SM OVC035
     FM262100 31005KT 6SM -SHSN BR OVC025
     FM262300 31006KT 3SM -SHSN BR OVC015
     FM270500 32006KT P6SM OVC015
     FM270900 32005KT P6SM BKN025=



000
FTUS41 KRLX 261000 AAC
TAFCRW
TAF AMD
KCRW 261054Z 2611/2706 06005KT 6SM -SN SCT004 OVC025
      TEMPO 2611/2612 5SM -SN BKN004
     FM261200 00000KT P6SM OVC035
     FM270000 33004KT 3SM -SHSN BR BKN010
     FM270200 VRB03KT 3SM BR BKN010=



000
FTUS41 KRLX 261000 AAC
TAFCRW
TAF AMD
KCRW 261054Z 2611/2706 06005KT 6SM -SN SCT004 OVC025
      TEMPO 2611/2612 5SM -SN BKN004
     FM261200 00000KT P6SM OVC035
     FM270000 33004KT 3SM -SHSN BR BKN010
     FM270200 VRB03KT 3SM BR BKN010=



000
FTUS41 KRLX 260900 AAC
TAFEKN
TAF AMD
KEKN 260920Z 2609/2706 00000KT 2SM -SN BR OVC025
      TEMPO 2609/2610 1SM -SN BKN015
     FM261000 00000KT 3SM -SN BR OVC015
     FM261200 00000KT 2SM -SN BR OVC025
     FM261700 00000KT 6SM -SHSN BR OVC035
     FM262300 30004KT 2SM -SHSN BR OVC008=



000
FTUS41 KRLX 260800 AAB
TAFCRW
TAF AMD
KCRW 260841Z 2609/2706 06005KT 6SM -SN OVC025
      TEMPO 2609/2611 5SM -SN
     FM261200 00000KT P6SM OVC035
     FM270000 33004KT 3SM -SHSN BR BKN010
     FM270200 VRB03KT 3SM BR BKN010=



000
FTUS41 KRLX 260800 AAB
TAFCRW
TAF AMD
KCRW 260841Z 2609/2706 06005KT 6SM -SN OVC025
      TEMPO 2609/2611 5SM -SN
     FM261200 00000KT P6SM OVC035
     FM270000 33004KT 3SM -SHSN BR BKN010
     FM270200 VRB03KT 3SM BR BKN010=



000
FTUS41 KRLX 260800 AAB
TAFEKN
TAF AMD
KEKN 260835Z 2609/2706 00000KT 2SM -SN BR OVC025
     FM261000 00000KT 3SM -SN BR OVC025
     FM261200 00000KT 2SM -SN BR OVC015
     FM261700 00000KT 6SM -SHSN BR OVC010
     FM262300 30004KT 2SM -SHSN BR OVC008=



000
FTUS41 KRLX 260800 AAB
TAFEKN
TAF AMD
KEKN 260835Z 2609/2706 00000KT 2SM -SN BR OVC025
     FM261000 00000KT 3SM -SN BR OVC025
     FM261200 00000KT 2SM -SN BR OVC015
     FM261700 00000KT 6SM -SHSN BR OVC010
     FM262300 30004KT 2SM -SHSN BR OVC008=



000
FTUS41 KRLX 260800 AAA
TAFEKN
TAF AMD
KEKN 260814Z 2608/2706 00000KT 6SM -SN BR OVC025
     FM261000 00000KT 4SM -SN BR OVC025
     FM261200 00000KT 4SM -SN BR OVC015
     FM261700 00000KT 6SM -SHSN BR OVC010
     FM262300 30004KT 2SM -SHSN BR OVC008=



000
FTUS41 KRLX 260800 AAA
TAFEKN
TAF AMD
KEKN 260814Z 2608/2706 00000KT 6SM -SN BR OVC025
     FM261000 00000KT 4SM -SN BR OVC025
     FM261200 00000KT 4SM -SN BR OVC015
     FM261700 00000KT 6SM -SHSN BR OVC010
     FM262300 30004KT 2SM -SHSN BR OVC008=



000
FTUS41 KRLX 260700 AAB
TAFBKW
TAF AMD
KBKW 260708Z 2607/2706 VRB03KT 2SM -SN BR BKN015 OVC025
     FM261100 VRB03KT 4SM -SN BR OVC015
     FM261600 VRB03KT P6SM OVC008
     FM262000 31005KT 6SM BR OVC010
     FM270000 VRB03KT 2SM -SHSN BR BKN008=



000
FTUS41 KRLX 260700 AAA
TAFCRW
TAF AMD
KCRW 260706Z 2607/2706 VRB03KT P6SM OVC035
      TEMPO 2608/2609 5SM -SN BKN025
     FM261200 00000KT P6SM OVC025
     FM270000 33004KT 3SM -SHSN BR BKN010
     FM270200 VRB03KT 3SM BR BKN010=



000
FTUS41 KRLX 260600 AAA
TAFBKW
TAF AMD
KBKW 260613Z 2606/2706 VRB03KT 2SM -SN BR OVC025
     FM261100 VRB03KT 4SM -SN BR OVC015
     FM261600 VRB03KT P6SM OVC008
     FM262000 31005KT 6SM BR OVC010
     FM270000 VRB03KT 2SM -SHSN BR BKN008=



000
FTUS41 KRLX 260600 AAA
TAFBKW
TAF AMD
KBKW 260613Z 2606/2706 VRB03KT 2SM -SN BR OVC025
     FM261100 VRB03KT 4SM -SN BR OVC015
     FM261600 VRB03KT P6SM OVC008
     FM262000 31005KT 6SM BR OVC010
     FM270000 VRB03KT 2SM -SHSN BR BKN008=



000
FTUS41 KRLX 260500 RRA
TAFCKB
TAF
KCKB 260545Z 2606/2706 36004KT P6SM OVC130
     FM261300 VRB03KT P6SM OVC035
     FM262000 34004KT P6SM OVC025
     FM262300 33004KT 3SM -SHSN BR OVC010
     FM270000 33004KT 3SM -SHSN BR OVC008=



000
FTUS41 KRLX 260500 RRA
TAFEKN
TAF
KEKN 260545Z 2606/2706 00000KT P6SM OVC070
     FM261000 00000KT 6SM -SN BR OVC045
     FM261100 00000KT 4SM -SN BR OVC025
     FM261200 00000KT 4SM -SN BR OVC015
     FM261700 00000KT 6SM -SHSN BR OVC010
     FM262300 30004KT 2SM -SHSN BR OVC008=



000
FTUS41 KRLX 260500 RRA
TAFHTS
TAF
KHTS 260545Z 2606/2706 02004KT P6SM OVC110
     FM262000 34004KT P6SM BKN035
     FM262100 34004KT P6SM BKN025
     FM270000 33005KT P6SM BKN015=



000
FTUS41 KRLX 260500 RRA
TAFBKW
TAF
KBKW 260545Z 2606/2706 00000KT 6SM -SN BR OVC070
     FM260700 00000KT 4SM -SN BR OVC035
     FM260900 VRB03KT 2SM -SN BR OVC025
     FM261100 VRB03KT 4SM -SN BR OVC015
     FM261600 VRB03KT P6SM OVC008
     FM262000 31005KT 6SM BR OVC010
     FM270000 VRB03KT 2SM -SHSN BR BKN008=



000
FTUS41 KRLX 260500 RRA
TAFCRW
TAF
KCRW 260545Z 2606/2706 VRB03KT P6SM OVC100
     FM261000 VRB03KT P6SM OVC035
     FM261200 00000KT P6SM OVC020
     FM261400 00000KT P6SM OVC025
     FM270000 33004KT 3SM -SHSN BR BKN010
     FM270200 VRB03KT 3SM BR BKN010=



000
FTUS41 KRLX 260500 RRA
TAFCKB
TAF
KCKB 260545Z 2606/2706 36004KT P6SM OVC130
     FM261300 VRB03KT P6SM OVC035
     FM262000 34004KT P6SM OVC025
     FM262300 33004KT 3SM -SHSN BR OVC010
     FM270000 33004KT 3SM -SHSN BR OVC008=



000
FTUS41 KRLX 260500 RRA
TAFEKN
TAF
KEKN 260545Z 2606/2706 00000KT P6SM OVC070
     FM261000 00000KT 6SM -SN BR OVC045
     FM261100 00000KT 4SM -SN BR OVC025
     FM261200 00000KT 4SM -SN BR OVC015
     FM261700 00000KT 6SM -SHSN BR OVC010
     FM262300 30004KT 2SM -SHSN BR OVC008=



000
FTUS41 KRLX 260500 RRA
TAFPKB
TAF
KPKB 260545Z 2606/2706 03005KT P6SM OVC120
     FM261800 33005KT P6SM BKN035
     FM262100 32006KT 6SM BR BKN025
     FM262200 33006KT 5SM BR BKN020
     FM270000 34005KT 3SM -SHSN BR BKN010
     FM270500 VRB03KT P6SM BKN015=



000
FTUS41 KRLX 260500 RRA
TAFHTS
TAF
KHTS 260545Z 2606/2706 02004KT P6SM OVC110
     FM262000 34004KT P6SM BKN035
     FM262100 34004KT P6SM BKN025
     FM270000 33005KT P6SM BKN015=



000
FTUS41 KRLX 260500 RRA
TAFCRW
TAF
KCRW 260545Z 2606/2706 VRB03KT P6SM OVC100
     FM261000 VRB03KT P6SM OVC035
     FM261200 00000KT P6SM OVC020
     FM261400 00000KT P6SM OVC025
     FM270000 33004KT 3SM -SHSN BR BKN010
     FM270200 VRB03KT 3SM BR BKN010=



000
FTUS41 KRLX 260500 RRA
TAFBKW
TAF
KBKW 260545Z 2606/2706 00000KT 6SM -SN BR OVC070
     FM260700 00000KT 4SM -SN BR OVC035
     FM260900 VRB03KT 2SM -SN BR OVC025
     FM261100 VRB03KT 4SM -SN BR OVC015
     FM261600 VRB03KT P6SM OVC008
     FM262000 31005KT 6SM BR OVC010
     FM270000 VRB03KT 2SM -SHSN BR BKN008=



000
FTUS41 KRLX 260500 RRA
TAFPKB
TAF
KPKB 260545Z 2606/2706 03005KT P6SM OVC120
     FM261800 33005KT P6SM BKN035
     FM262100 32006KT 6SM BR BKN025
     FM262200 33006KT 5SM BR BKN020
     FM270000 34005KT 3SM -SHSN BR BKN010
     FM270500 VRB03KT P6SM BKN015=



000
FTUS41 KRLX 260300 AAB
TAFBKW
TAF AMD
KBKW 260340Z 2604/2624 03005KT P6SM OVC100
     FM260500 00000KT 3SM -SN BR OVC025
     FM260700 00000KT 1SM -SN BR SCT001 OVC010
     FM261100 VRB03KT 5SM BR OVC003
     FM261400 00000KT P6SM OVC010
     FM262000 31005KT 6SM -SN BR OVC008=



000
FTUS41 KRLX 260200 AAA
TAFPKB
TAF AMD
KPKB 260258Z 2603/2624 04006KT P6SM SKC
     FM261000 02005KT P6SM BKN030
     FM261500 36004KT P6SM OVC020
     FM262000 33006KT 5SM -SN BR BKN015=



000
FTUS41 KRLX 260200 AAA
TAFBKW
TAF AMD
KBKW 260258Z 2603/2624 03005KT P6SM OVC100
     FM260400 00000KT 3SM -SN BR OVC025
     FM260600 00000KT 1SM -SN BR SCT001 OVC010
     FM261100 VRB03KT 5SM BR OVC003
     FM261400 00000KT P6SM OVC010
     FM262000 31005KT 6SM -SN BR OVC008=



000
FTUS41 KRLX 260200 AAA
TAFCRW
TAF AMD
KCRW 260258Z 2603/2624 08005KT P6SM OVC120
     FM260800 VRB03KT 3SM -SN BR OVC020
     FM261200 00000KT 6SM -SN BR OVC015=



000
FTUS41 KRLX 260200 AAA
TAFEKN
TAF AMD
KEKN 260258Z 2603/2624 00000KT P6SM SKC
     FM261000 00000KT 3SM -SN BR OVC030
     FM261200 00000KT 1SM -SN BR SCT001 OVC025
     FM261400 00000KT 3SM BR OVC015
     FM262300 30004KT 1 1/2SM -SHSN BR OVC008=



000
FTUS41 KRLX 260200 AAA
TAFPKB
TAF AMD
KPKB 260258Z 2603/2624 04006KT P6SM SKC
     FM261000 02005KT P6SM BKN030
     FM261500 36004KT P6SM OVC020
     FM262000 33006KT 5SM -SN BR BKN015=



000
FTUS41 KRLX 260200 AAA
TAFBKW
TAF AMD
KBKW 260258Z 2603/2624 03005KT P6SM OVC100
     FM260400 00000KT 3SM -SN BR OVC025
     FM260600 00000KT 1SM -SN BR SCT001 OVC010
     FM261100 VRB03KT 5SM BR OVC003
     FM261400 00000KT P6SM OVC010
     FM262000 31005KT 6SM -SN BR OVC008=



000
FTUS41 KRLX 260200 AAA
TAFHTS
TAF AMD
KHTS 260258Z 2603/2624 05006KT P6SM BKN110
     FM261000 02004KT 5SM -SN BR OVC025
     FM261300 34005KT P6SM BKN015=



000
FTUS41 KRLX 260200 AAA
TAFCKB
TAF AMD
KCKB 260258Z 2603/2624 00000KT P6SM SKC
     FM261200 VRB03KT 5SM -SN BR OVC035
     FM261400 00000KT P6SM OVC020
     FM261900 34004KT 6SM -SN BR OVC010
     FM262300 33004KT 3SM -SN BR OVC008=



000
FTUS41 KRLX 260200 AAA
TAFEKN
TAF AMD
KEKN 260258Z 2603/2624 00000KT P6SM SKC
     FM261000 00000KT 3SM -SN BR OVC030
     FM261200 00000KT 1SM -SN BR SCT001 OVC025
     FM261400 00000KT 3SM BR OVC015
     FM262300 30004KT 1 1/2SM -SHSN BR OVC008=



000
FTUS41 KRLX 260200 AAA
TAFCRW
TAF AMD
KCRW 260258Z 2603/2624 08005KT P6SM OVC120
     FM260800 VRB03KT 3SM -SN BR OVC020
     FM261200 00000KT 6SM -SN BR OVC015=



000
FTUS41 KRLX 252300
TAFCKB
TAF
KCKB 252335Z 2600/2624 19004KT P6SM SKC
     FM261200 VRB03KT 5SM -SN BR OVC035
     FM261400 00000KT P6SM OVC020
     FM261900 34004KT 6SM -SN BR OVC010
     FM262300 33004KT 3SM -SN BR OVC008=



000
FTUS41 KRLX 252300
TAFPKB
TAF
KPKB 252335Z 2600/2624 00000KT P6SM SKC
     FM261000 02005KT P6SM BKN030
     FM261500 36004KT P6SM OVC020
     FM262000 33006KT 5SM -SN BR BKN015=



000
FTUS41 KRLX 252300
TAFBKW
TAF
KBKW 252335Z 2600/2624 07003KT P6SM SKC
     FM260400 00000KT 3SM -SN BR OVC025
     FM260600 00000KT 1SM -SN BR SCT001 OVC010
     FM261100 VRB03KT 5SM BR OVC003
     FM261400 00000KT P6SM OVC010
     FM262000 31005KT 6SM -SN BR OVC008=



000
FTUS41 KRLX 252300
TAFHTS
TAF
KHTS 252335Z 2600/2624 03003KT P6SM SKC
     FM261000 02004KT 5SM -SN BR OVC025
     FM261300 34005KT P6SM BKN015=



000
FTUS41 KRLX 252300
TAFCRW
TAF
KCRW 252335Z 2600/2624 03003KT P6SM OVC150
     FM260800 VRB03KT 3SM -SN BR OVC020
     FM261200 00000KT 6SM -SN BR OVC015=



000
FTUS41 KRLX 252300
TAFEKN
TAF
KEKN 252335Z 2600/2624 00000KT P6SM SKC
     FM261000 00000KT 3SM -SN BR OVC030
     FM261200 00000KT 1SM -SN BR SCT001 OVC025
     FM261400 00000KT 3SM BR OVC015
     FM262300 30004KT 1 1/2SM -SHSN BR OVC008=



000
FTUS41 KRLX 252300
TAFBKW
TAF
KBKW 252335Z 2600/2624 07003KT P6SM SKC
     FM260400 00000KT 3SM -SN BR OVC025
     FM260600 00000KT 1SM -SN BR SCT001 OVC010
     FM261100 VRB03KT 5SM BR OVC003
     FM261400 00000KT P6SM OVC010
     FM262000 31005KT 6SM -SN BR OVC008=



000
FTUS41 KRLX 252300
TAFCRW
TAF
KCRW 252335Z 2600/2624 03003KT P6SM OVC150
     FM260800 VRB03KT 3SM -SN BR OVC020
     FM261200 00000KT 6SM -SN BR OVC015=



000
FTUS41 KRLX 252300
TAFCKB
TAF
KCKB 252335Z 2600/2624 19004KT P6SM SKC
     FM261200 VRB03KT 5SM -SN BR OVC035
     FM261400 00000KT P6SM OVC020
     FM261900 34004KT 6SM -SN BR OVC010
     FM262300 33004KT 3SM -SN BR OVC008=



000
FTUS41 KRLX 251700
TAFPKB
TAF
KPKB 251722Z 2518/2618 VRB03KT P6SM SCT250
     FM252200 02003KT P6SM SCT120 BKN250
     FM260300 03004KT P6SM BKN100
     FM260800 03006KT P6SM OVC080
     FM261400 36004KT P6SM BKN035=



000
FTUS41 KRLX 251700
TAFHTS
TAF
KHTS 251722Z 2518/2618 VRB03KT P6SM BKN250
     FM252000 VRB03KT P6SM BKN100
     FM260500 03006KT P6SM SCT035 OVC080
     FM260800 02004KT 6SM -SN OVC040
     FM261500 35004KT P6SM BKN029=



000
FTUS41 KRLX 251700
TAFBKW
TAF
KBKW 251722Z 2518/2618 28007KT P6SM BKN200
     FM252000 VRB03KT P6SM SCT030 OVC100
     FM260300 10005KT 4SM -SN BKN030 OVC080
     FM260600 10007KT 1 1/2SM -SN BR OVC010
     FM261100 12004KT 3SM -SN BR OVC005
     FM261400 VRB03KT 4SM BR OVC010=



000
FTUS41 KRLX 251700
TAFCKB
TAF
KCKB 251722Z 2518/2618 26004KT P6SM SCT250
     FM252300 35004KT P6SM SCT120 BKN250
     FM260600 36004KT P6SM OVC100
     FM261000 03004KT 4SM -SN BKN030 OVC080
     FM261500 VRB03KT 6SM BR OVC028=



000
FTUS41 KRLX 251700
TAFEKN
TAF
KEKN 251722Z 2518/2618 VRB03KT P6SM BKN250
     FM260100 VRB03KT P6SM BKN100
     FM260600 VRB03KT 5SM -SN BKN035 OVC080
     FM260900 VRB03KT 2SM -SN OVC030
     FM261500 VRB03KT 5SM BR OVC020=



000
FTUS41 KRLX 251700
TAFCRW
TAF
KCRW 251722Z 2518/2618 22005KT P6SM BKN250
     FM252000 VRB03KT P6SM BKN120
     FM260400 04005KT P6SM BKN035 OVC080
     FM260700 03003KT 3SM -SN BR OVC028
     FM261400 VRB03KT 6SM BR OVC026=



000
FTUS41 KRLX 251700
TAFCRW
TAF
KCRW 251722Z 2518/2618 22005KT P6SM BKN250
     FM252000 VRB03KT P6SM BKN120
     FM260400 04005KT P6SM BKN035 OVC080
     FM260700 03003KT 3SM -SN BR OVC028
     FM261400 VRB03KT 6SM BR OVC026=



000
FTUS41 KRLX 251700
TAFHTS
TAF
KHTS 251722Z 2518/2618 VRB03KT P6SM BKN250
     FM252000 VRB03KT P6SM BKN100
     FM260500 03006KT P6SM SCT035 OVC080
     FM260800 02004KT 6SM -SN OVC040
     FM261500 35004KT P6SM BKN029=



000
FTUS41 KRLX 251700
TAFBKW
TAF
KBKW 251722Z 2518/2618 28007KT P6SM BKN200
     FM252000 VRB03KT P6SM SCT030 OVC100
     FM260300 10005KT 4SM -SN BKN030 OVC080
     FM260600 10007KT 1 1/2SM -SN BR OVC010
     FM261100 12004KT 3SM -SN BR OVC005
     FM261400 VRB03KT 4SM BR OVC010=



000
FTUS41 KRLX 251700
TAFCKB
TAF
KCKB 251722Z 2518/2618 26004KT P6SM SCT250
     FM252300 35004KT P6SM SCT120 BKN250
     FM260600 36004KT P6SM OVC100
     FM261000 03004KT 4SM -SN BKN030 OVC080
     FM261500 VRB03KT 6SM BR OVC028=



000
FTUS41 KRLX 251700
TAFEKN
TAF
KEKN 251722Z 2518/2618 VRB03KT P6SM BKN250
     FM260100 VRB03KT P6SM BKN100
     FM260600 VRB03KT 5SM -SN BKN035 OVC080
     FM260900 VRB03KT 2SM -SN OVC030
     FM261500 VRB03KT 5SM BR OVC020=



000
FTUS41 KRLX 251700
TAFPKB
TAF
KPKB 251722Z 2518/2618 VRB03KT P6SM SCT250
     FM252200 02003KT P6SM SCT120 BKN250
     FM260300 03004KT P6SM BKN100
     FM260800 03006KT P6SM OVC080
     FM261400 36004KT P6SM BKN035=



000
FTUS41 KRLX 251500 AAA
TAFCRW
TAF AMD
KCRW 251517Z 2515/2612 22005KT P6SM BKN250
     FM252000 VRB03KT P6SM BKN120
     FM260500 04005KT P6SM OVC035=



000
FTUS41 KRLX 251500 AAA
TAFBKW
TAF AMD
KBKW 251517Z 2515/2612 28007KT P6SM SCT030 BKN200
     FM252000 VRB03KT P6SM SCT030 OVC100
     FM260400 10005KT 5SM -SN BKN030 OVC080
     FM260800 10005KT 2SM -SN BR OVC012=



000
FTUS41 KRLX 251500 AAA
TAFCKB
TAF AMD
KCKB 251517Z 2515/2612 26004KT P6SM SCT035 SCT250
     FM252300 35004KT P6SM SCT120 BKN250
     FM261100 03004KT P6SM BKN030 OVC080=



000
FTUS41 KRLX 251500 AAA
TAFPKB
TAF AMD
KPKB 251517Z 2515/2612 VRB03KT P6SM SKC
     FM252200 02003KT P6SM SCT120 BKN250
     FM260300 03004KT P6SM BKN100
     FM260800 03006KT P6SM BKN040=



000
FTUS41 KRLX 251500 AAA
TAFEKN
TAF AMD
KEKN 251517Z 2515/2612 27006KT P6SM BKN030
     FM251900 VRB03KT P6SM SCT035 BKN250
     FM260100 VRB03KT P6SM BKN100
     FM260700 VRB03KT P6SM BKN035 OVC080
     FM261000 VRB03KT 6SM -SN OVC030=



000
FTUS41 KRLX 251500 AAA
TAFHTS
TAF AMD
KHTS 251517Z 2515/2612 VRB03KT P6SM BKN250
     FM252000 VRB03KT P6SM BKN100
     FM260500 03006KT P6SM BKN035=



000
FTUS41 KRLX 251100
TAFPKB
TAF
KPKB 251122Z 2512/2612 24006KT P6SM BKN035
     FM252200 00000KT P6SM BKN080
     FM260600 03006KT P6SM BKN050
     FM261100 02006KT 6SM BR OVC030=



000
FTUS41 KRLX 251100
TAFBKW
TAF
KBKW 251122Z 2512/2612 28007KT P6SM BKN035
     FM251900 VRB03KT P6SM BKN060
     FM260500 10005KT 4SM BR OVC030
     FM260600 10005KT 4SM -SN BR OVC025=



000
FTUS41 KRLX 251100
TAFHTS
TAF
KHTS 251122Z 2512/2612 21004KT P6SM BKN040
     FM252000 00000KT P6SM BKN070
     FM260500 03006KT P6SM BKN035
     FM261000 02006KT P6SM OVC030=



000
FTUS41 KRLX 251100
TAFCRW
TAF
KCRW 251122Z 2512/2612 22005KT P6SM BKN040
     FM251900 00000KT P6SM BKN080
     FM260500 04005KT P6SM OVC030=



000
FTUS41 KRLX 251100
TAFCKB
TAF
KCKB 251122Z 2512/2612 25008KT P6SM BKN035
     FM251900 26004KT P6SM BKN100
     FM252300 35004KT P6SM BKN050
     FM261100 03004KT P6SM OVC030=



000
FTUS41 KRLX 251100
TAFEKN
TAF
KEKN 251122Z 2512/2612 23008KT P6SM BKN035
     FM251900 28005KT P6SM BKN070
     FM260200 00000KT P6SM BKN040
     FM260500 VRB03KT P6SM BKN030
     FM261000 VRB03KT P6SM OVC025=



000
FTUS41 KRLX 250800 AAA
TAFCKB
TAF AMD
KCKB 250803Z 2508/2606 26008KT P6SM BKN035
     FM252200 VRB03KT P6SM SCT070
     FM260100 02004KT P6SM BKN050=



000
FTUS41 KRLX 250800 AAA
TAFPKB
TAF AMD
KPKB 250802Z 2508/2606 24006KT P6SM BKN035
     FM252100 00000KT P6SM SCT090
     FM260200 VRB03KT P6SM BKN050=



000
FTUS41 KRLX 250500
TAFEKN
TAF
KEKN 250536Z 2506/2606 26010G20KT P6SM BKN035
     FM250900 27009KT P6SM -SHSN BKN035
     FM251100 27009KT P6SM BKN035
     FM251600 27008KT P6SM BKN070
     FM260100 VRB03KT P6SM BKN045
     FM260500 VRB03KT P6SM BKN030=



000
FTUS41 KRLX 250500
TAFCRW
TAF
KCRW 250536Z 2506/2606 27007KT P6SM BKN035
     FM250630 26008G18KT P6SM BKN035
     FM250800 26008KT P6SM BKN035
     FM251900 VRB03KT P6SM BKN050
     FM260500 04005KT 5SM BR OVC030=



000
FTUS41 KRLX 250500
TAFHTS
TAF
KHTS 250536Z 2506/2606 25007G17KT P6SM BKN050
     FM250800 24008KT P6SM BKN035
     FM251400 26004KT P6SM BKN050
     FM251700 VRB03KT P6SM SCT090
     FM260100 04004KT P6SM BKN045=



000
FTUS41 KRLX 250500
TAFPKB
TAF
KPKB 250536Z 2506/2606 26008G18KT P6SM BKN035
     FM251300 26006KT P6SM BKN035
     FM252100 00000KT P6SM SCT090
     FM260200 VRB03KT P6SM BKN050=



000
FTUS41 KRLX 250500
TAFBKW
TAF
KBKW 250536Z 2506/2606 28009KT P6SM BKN035
     FM250700 26008G18KT P6SM BKN035
     FM250900 26007KT P6SM BKN035
     FM251800 28004KT P6SM BKN060
     FM252000 00000KT P6SM BKN050
     FM260500 10005KT 4SM BR OVC030=



000
FTUS41 KRLX 250500 AAB
TAFBKW
TAF AMD
KBKW 250501Z 2505/2524 26008KT P6SM BKN035
     FM250600 28008G18KT P6SM BKN035
     FM251300 29008KT P6SM BKN200=



000
FTUS41 KRLX 250500 AAB
TAFCRW
TAF AMD
KCRW 250500Z 2505/2524 27007KT P6SM BKN035
     FM250600 26008G18KT P6SM BKN035
     FM251300 25007KT P6SM SCT025=



000
FTUS41 KRLX 250400 AAB
TAFEKN
TAF AMD
KEKN 250457Z 2505/2524 26008G18KT P6SM BKN035
     FM250800 27010G20KT 6SM -SHSN BKN020
     FM251400 28010KT P6SM SCT015=



000
FTUS41 KRLX 250300 AAC
TAFPKB
TAF AMD
KPKB 250335Z 2504/2524 26009G19KT P6SM BKN035
     FM250700 26010KT P6SM BKN035
     FM251200 24008KT P6SM BKN200=



000
FTUS41 KRLX 250300 AAC
TAFPKB
TAF AMD
KPKB 250335Z 2504/2524 26009G19KT P6SM BKN035
     FM250700 26010KT P6SM BKN035
     FM251200 24008KT P6SM BKN200=



000
FTUS41 KRLX 250300 AAB
TAFPKB
TAF AMD
KPKB 250334Z 2504/2524 23008KT P6SM SKC
     FM250400 26009G19KT P6SM BKN035
     FM250700 26010KT P6SM BKN035
     FM251200 24008KT P6SM BKN200=



000
FTUS41 KRLX 250300 AAB
TAFPKB
TAF AMD
KPKB 250334Z 2504/2524 23008KT P6SM SKC
     FM250400 26009G19KT P6SM BKN035
     FM250700 26010KT P6SM BKN035
     FM251200 24008KT P6SM BKN200=



000
FTUS41 KRLX 250300 AAB
TAFHTS
TAF AMD
KHTS 250329Z 2503/2524 23007KT P6SM SKC
     FM250400 25007KT P6SM BKN035
     FM251100 25007KT P6SM SCT025=



000
FTUS41 KRLX 250200 AAA
TAFHTS
TAF AMD
KHTS 250255Z 2503/2524 23007KT P6SM SKC
     FM250700 25007KT P6SM BKN025
     FM251100 25007KT P6SM SCT025=



000
FTUS41 KRLX 250200 AAA
TAFEKN
TAF AMD
KEKN 250255Z 2503/2524 22008KT P6SM SKC
     FM250800 27006KT 6SM -SHSN BKN020
     FM251400 28010KT P6SM SCT015=



000
FTUS41 KRLX 250200 AAA
TAFPKB
TAF AMD
KPKB 250255Z 2503/2524 23008KT P6SM SKC
     FM250400 25009KT P6SM BKN030
     FM251200 24008KT P6SM BKN200=



000
FTUS41 KRLX 250200 AAA
TAFCKB
TAF AMD
KCKB 250255Z 2503/2524 23008KT P6SM SKC
     FM250600 25008KT P6SM BKN030
     FM251500 25008KT P6SM BKN120=



000
FTUS41 KRLX 250200 AAA
TAFCRW
TAF AMD
KCRW 250255Z 2503/2524 23007KT P6SM SKC
     FM250700 24007KT P6SM BKN030
     FM251300 25007KT P6SM SCT025=



000
FTUS41 KRLX 250200 AAA
TAFBKW
TAF AMD
KBKW 250255Z 2503/2524 26008KT P6SM SCT200
     FM250900 28008KT P6SM BKN020
     FM251300 29008KT P6SM BKN200=



000
FTUS41 KRLX 250200 AAA
TAFEKN
TAF AMD
KEKN 250255Z 2503/2524 22008KT P6SM SKC
     FM250800 27006KT 6SM -SHSN BKN020
     FM251400 28010KT P6SM SCT015=



000
FTUS41 KRLX 250200 AAA
TAFPKB
TAF AMD
KPKB 250255Z 2503/2524 23008KT P6SM SKC
     FM250400 25009KT P6SM BKN030
     FM251200 24008KT P6SM BKN200=



000
FTUS41 KRLX 250200 AAA
TAFCKB
TAF AMD
KCKB 250255Z 2503/2524 23008KT P6SM SKC
     FM250600 25008KT P6SM BKN030
     FM251500 25008KT P6SM BKN120=



000
FTUS41 KRLX 250200 AAA
TAFHTS
TAF AMD
KHTS 250255Z 2503/2524 23007KT P6SM SKC
     FM250700 25007KT P6SM BKN025
     FM251100 25007KT P6SM SCT025=



000
FTUS41 KRLX 242300
TAFHTS
TAF
KHTS 242340Z 2500/2524 23007KT P6SM SKC
     FM250700 25007KT P6SM BKN025
     FM251100 25007KT P6SM SCT025=



000
FTUS41 KRLX 242300
TAFBKW
TAF
KBKW 242340Z 2500/2524 26008KT P6SM SCT200
     FM250900 28008KT P6SM BKN020
     FM251300 29008KT P6SM BKN200=



000
FTUS41 KRLX 241900 AAA
TAFBKW
TAF AMD
KBKW 241906Z 2419/2518 24006KT P6SM OVC016
     FM242000 24006KT P6SM BKN020
     FM242300 24008KT P6SM SCT030 SCT100
     FM250800 27007G15KT 5SM -SHSN OVC028
     FM251300 29008KT 6SM -SHSN BKN030
     FM251600 29007KT P6SM BKN035=



000
FTUS41 KRLX 241900 AAA
TAFBKW
TAF AMD
KBKW 241906Z 2419/2518 24006KT P6SM OVC016
     FM242000 24006KT P6SM BKN020
     FM242300 24008KT P6SM SCT030 SCT100
     FM250800 27007G15KT 5SM -SHSN OVC028
     FM251300 29008KT 6SM -SHSN BKN030
     FM251600 29007KT P6SM BKN035=



000
FTUS41 KRLX 241700 RRA
TAFBKW
TAF
KBKW 241759Z 2418/2518 21006KT 6SM -SN BKN025 BKN100
     FM242000 24006KT P6SM SCT030 SCT100
     FM250800 27007G15KT 5SM -SHSN OVC028
     FM251300 29008KT 6SM -SHSN BKN030
     FM251600 29007KT P6SM BKN035=



000
FTUS41 KRLX 241700 RRA
TAFEKN
TAF
KEKN 241759Z 2418/2518 21004KT P6SM SCT100
     FM250500 25008G16KT P6SM SCT035 BKN100
     FM251000 27010G18KT 4SM -SHSN OVC025
     FM251400 28008KT 6SM -SHSN BKN025=



000
FTUS41 KRLX 241700 RRA
TAFCKB
TAF
KCKB 241759Z 2418/2518 22008KT P6SM SCT120
     FM250300 24010G16KT P6SM SCT035 BKN100
     FM250800 25010G16KT 5SM -SHSN OVC025
     FM251400 26008KT P6SM BKN030=



000
FTUS41 KRLX 241700 RRA
TAFPKB
TAF
KPKB 241759Z 2418/2518 23008KT P6SM SCT100
     FM250300 24009G17KT P6SM SCT040 BKN080
     FM250700 26009KT 6SM -SHSN OVC028
     FM251100 26007KT P6SM BKN030
     FM251300 27007KT P6SM BKN035
     FM251600 27006KT P6SM SCT040=



000
FTUS41 KRLX 241700 RRA
TAFHTS
TAF
KHTS 241759Z 2418/2518 23007KT P6SM SCT120
     FM250500 23008KT P6SM BKN040
     FM250900 25008KT 6SM -SHSN BKN028
     FM251300 27006KT P6SM BKN035
     FM251600 27006KT P6SM SCT040=



000
FTUS41 KRLX 241700 RRA
TAFHTS
TAF
KHTS 241759Z 2418/2518 23007KT P6SM SCT120
     FM250500 23008KT P6SM BKN040
     FM250900 25008KT 6SM -SHSN BKN028
     FM251300 27006KT P6SM BKN035
     FM251600 27006KT P6SM SCT040=



000
FTUS41 KRLX 241700 RRA
TAFBKW
TAF
KBKW 241759Z 2418/2518 21006KT 6SM -SN BKN025 BKN100
     FM242000 24006KT P6SM SCT030 SCT100
     FM250800 27007G15KT 5SM -SHSN OVC028
     FM251300 29008KT 6SM -SHSN BKN030
     FM251600 29007KT P6SM BKN035=



000
FTUS41 KRLX 241700 RRA
TAFEKN
TAF
KEKN 241759Z 2418/2518 21004KT P6SM SCT100
     FM250500 25008G16KT P6SM SCT035 BKN100
     FM251000 27010G18KT 4SM -SHSN OVC025
     FM251400 28008KT 6SM -SHSN BKN025=



000
FTUS41 KRLX 241700 RRA
TAFCRW
TAF
KCRW 241759Z 2418/2518 22006KT P6SM SCT120
     FM250700 24009KT P6SM BKN035
     FM250900 25006KT 6SM -SHSN OVC027
     FM251400 28005KT P6SM BKN035=



000
FTUS41 KRLX 241700 RRA
TAFPKB
TAF
KPKB 241759Z 2418/2518 23008KT P6SM SCT100
     FM250300 24009G17KT P6SM SCT040 BKN080
     FM250700 26009KT 6SM -SHSN OVC028
     FM251100 26007KT P6SM BKN030
     FM251300 27007KT P6SM BKN035
     FM251600 27006KT P6SM SCT040=



000
FTUS41 KRLX 241700 RRA
TAFCKB
TAF
KCKB 241759Z 2418/2518 22008KT P6SM SCT120
     FM250300 24010G16KT P6SM SCT035 BKN100
     FM250800 25010G16KT 5SM -SHSN OVC025
     FM251400 26008KT P6SM BKN030=



000
FTUS41 KRLX 241700 RRA
TAFCRW
TAF
KCRW 241759Z 2418/2518 22006KT P6SM SCT120
     FM250700 24009KT P6SM BKN035
     FM250900 25006KT 6SM -SHSN OVC027
     FM251400 28005KT P6SM BKN035=



000
FTUS41 KRLX 241500 AAA
TAFPKB
TAF AMD
KPKB 241514Z 2415/2512 19004KT P6SM SKC
     FM241900 22008KT P6SM FEW150
     FM250300 25009KT P6SM BKN035
     FM250800 26009KT 3SM -SHSN OVC026=



000
FTUS41 KRLX 241500 AAA
TAFCKB
TAF AMD
KCKB 241514Z 2415/2512 19004KT P6SM FEW200
     FM241800 22008KT P6SM SCT150
     FM250300 24010G16KT P6SM BKN035
     FM250800 25010G16KT 3SM -SHSN OVC025=



000
FTUS41 KRLX 241500 AAA
TAFEKN
TAF AMD
KEKN 241514Z 2415/2512 16003KT P6SM SCT150
     FM241800 22008KT P6SM SCT035 SCT100
     FM250200 25011G16KT P6SM BKN100
     FM251000 27011G18KT 3SM -SHSN OVC030=



000
FTUS41 KRLX 241500 AAA
TAFHTS
TAF AMD
KHTS 241514Z 2415/2512 21006KT P6SM SKC
     FM242000 23007KT P6SM SCT120
     FM250900 25008KT 3SM -SHSN OVC028=



000
FTUS41 KRLX 241500 AAA
TAFCRW
TAF AMD
KCRW 241514Z 2415/2512 VRB02KT P6SM SCT150
     FM241700 22006KT P6SM SCT120
     FM241900 24008KT P6SM FEW040
     FM242200 24008KT P6SM SCT100
     FM250900 25009KT 3SM -SHSN OVC027=



000
FTUS41 KRLX 241500 AAB
TAFBKW
TAF AMD
KBKW 241514Z 2415/2512 15007KT 4SM -SN OVC030
      TEMPO 2415/2418 2SM -SN BR OVC020
     FM241800 21006KT 6SM -SN BKN035 BKN100
     FM242000 25007KT P6SM SCT030
     FM250200 26009KT P6SM BKN060
     FM250700 29009G16KT 3SM -SHSN OVC022=



000
FTUS41 KRLX 241400 AAA
TAFBKW
TAF AMD
KBKW 241414Z 2414/2512 15007KT 5SM -SN OVC020
     FM241500 18007KT 2SM -SN OVC014
      TEMPO 2415/2418 1SM -SN BR
     FM241800 21006KT 4SM -SN BKN009
     FM242000 25007KT P6SM BKN016
     FM242300 25007KT P6SM SCT027
     FM250200 26009KT P6SM BKN060
     FM250700 29009G16KT 3SM -SHSN OVC022=



000
FTUS41 KRLX 241100
TAFEKN
TAF
KEKN 241137Z 2412/2512 16003KT P6SM SCT150
     FM241800 22008KT P6SM BKN035
     FM250200 25011G16KT P6SM BKN100
     FM251000 27011G18KT 3SM -SHSN OVC030=



000
FTUS41 KRLX 241100
TAFBKW
TAF
KBKW 241137Z 2412/2512 15006KT P6SM BKN080
     FM241330 15007KT 5SM -SN BKN035
     FM241500 18007KT 2SM -SN BKN014
     FM241800 21006KT 3SM -SN BKN009
     FM242100 25007KT P6SM BKN016
     FM242300 25007KT P6SM BKN027
     FM250200 26009KT P6SM BKN060
     FM250700 29009G16KT 3SM -SHSN OVC022=



000
FTUS41 KRLX 241100
TAFCKB
TAF
KCKB 241137Z 2412/2512 VRB02KT P6SM FEW200
     FM241500 19004KT P6SM FEW200
     FM241800 22008KT P6SM SCT150
     FM250300 24010G16KT P6SM BKN035
     FM250800 25010G16KT 3SM -SHSN OVC025=



000
FTUS41 KRLX 241100
TAFHTS
TAF
KHTS 241137Z 2412/2512 VRB02KT P6SM SCT150
      TEMPO 2412/2414 BKN150
     FM242000 23007KT P6SM FEW150
     FM250900 25008KT 3SM -SHSN OVC028=



000
FTUS41 KRLX 241100
TAFPKB
TAF
KPKB 241137Z 2412/2512 VRB02KT P6SM FEW200
     FM241500 19004KT P6SM FEW200
     FM241900 22008KT P6SM FEW150
     FM250300 25009KT P6SM BKN035
     FM250800 26009KT 3SM -SHSN OVC026=



000
FTUS41 KRLX 241100
TAFEKN
TAF
KEKN 241137Z 2412/2512 16003KT P6SM SCT150
     FM241800 22008KT P6SM BKN035
     FM250200 25011G16KT P6SM BKN100
     FM251000 27011G18KT 3SM -SHSN OVC030=



000
FTUS41 KRLX 241100
TAFBKW
TAF
KBKW 241137Z 2412/2512 15006KT P6SM BKN080
     FM241330 15007KT 5SM -SN BKN035
     FM241500 18007KT 2SM -SN BKN014
     FM241800 21006KT 3SM -SN BKN009
     FM242100 25007KT P6SM BKN016
     FM242300 25007KT P6SM BKN027
     FM250200 26009KT P6SM BKN060
     FM250700 29009G16KT 3SM -SHSN OVC022=



000
FTUS41 KRLX 241100
TAFHTS
TAF
KHTS 241137Z 2412/2512 VRB02KT P6SM SCT150
      TEMPO 2412/2414 BKN150
     FM242000 23007KT P6SM FEW150
     FM250900 25008KT 3SM -SHSN OVC028=



000
FTUS41 KRLX 241100
TAFCRW
TAF
KCRW 241137Z 2412/2512 VRB02KT P6SM SCT150
      TEMPO 2412/2415 BKN150
     FM241700 24007KT P6SM SCT100
     FM241900 24008KT P6SM SCT040
     FM242200 24008KT P6SM SCT110
     FM250900 25009KT 3SM -SHSN OVC027=



000
FTUS41 KRLX 241100
TAFCRW
TAF
KCRW 241137Z 2412/2512 VRB02KT P6SM SCT150
      TEMPO 2412/2415 BKN150
     FM241700 24007KT P6SM SCT100
     FM241900 24008KT P6SM SCT040
     FM242200 24008KT P6SM SCT110
     FM250900 25009KT 3SM -SHSN OVC027=



000
FTUS41 KRLX 241100
TAFPKB
TAF
KPKB 241137Z 2412/2512 VRB02KT P6SM FEW200
     FM241500 19004KT P6SM FEW200
     FM241900 22008KT P6SM FEW150
     FM250300 25009KT P6SM BKN035
     FM250800 26009KT 3SM -SHSN OVC026=



000
FTUS41 KRLX 241100
TAFCKB
TAF
KCKB 241137Z 2412/2512 VRB02KT P6SM FEW200
     FM241500 19004KT P6SM FEW200
     FM241800 22008KT P6SM SCT150
     FM250300 24010G16KT P6SM BKN035
     FM250800 25010G16KT 3SM -SHSN OVC025=



000
FTUS41 KRLX 240900 AAA
TAFBKW
TAF AMD
KBKW 240922Z 2409/2506 15006KT P6SM BKN100
     FM241300 15007KT 5SM -SN BKN035
     FM241500 18007KT 2SM -SN BKN014
     FM241800 21006KT 3SM -SN BKN009
     FM242200 25007KT P6SM BKN016
     FM242300 25007KT P6SM BKN027
     FM250200 26009KT P6SM BKN080=



000
FTUS41 KRLX 240900 AAA
TAFEKN
TAF AMD
KEKN 240922Z 2409/2506 00000KT P6SM SKC
     FM241100 16004KT P6SM SKC
     FM241800 22008KT P6SM BKN035
     FM250200 25011G16KT P6SM BKN100=



000
FTUS41 KRLX 240900 AAA
TAFCKB
TAF AMD
KCKB 240922Z 2409/2506 00000KT P6SM SKC
     FM241500 19004KT P6SM FEW250
     FM241800 22008KT P6SM SCT150
     FM250300 24010G15KT P6SM BKN035=



000
FTUS41 KRLX 240900 AAA
TAFHTS
TAF AMD
KHTS 240922Z 2409/2506 VRB03KT P6SM SCT180
     FM242000 23007KT P6SM FEW150=



000
FTUS41 KRLX 240900 AAA
TAFCRW
TAF AMD
KCRW 240922Z 2409/2506 VRB03KT P6SM SCT180
     FM241700 24007KT P6SM SCT100
     FM241900 24008KT P6SM SCT040
     FM242200 24008KT P6SM SCT110=



000
FTUS41 KRLX 240900 AAA
TAFPKB
TAF AMD
KPKB 240922Z 2409/2506 00000KT P6SM SKC
     FM241500 19004KT P6SM FEW250
     FM241900 22008KT P6SM FEW150
     FM250300 25009KT P6SM BKN035=



    US Dept of Commerce
    National Oceanic and Atmospheric Administration
    National Weather Service
    1325 East West Highway
    Silver Spring, MD 20910
    Page Author: NWS Internet Services Team
Disclaimer
Information Quality
Credits
Glossary
Privacy Policy
Freedom of Information Act (FOIA)
About Us
Career Opportunities